Time;durP1;ratioP1;P1;durP2;ratioP2;P2;SDS_P1;SDS_P2;PMS_P1;PMS_P2;Temp;Humidity;BMP_temperature;BMP_pressure;BME280_temperature;BME280_humidity;BME280_pressure;Samples;Min_cycle;Max_cycle;Signal;HPM_P1;HPM_P2
2022/05/12 00:02:05;;;;;;;1.90;0.80;;;21.50;54.00;;;;;;4948517;28;20140;-60
2022/05/12 00:04:31;;;;;;;2.10;0.90;;;21.50;54.00;;;;;;4946863;28;20047;-59
2022/05/12 00:06:58;;;;;;;2.00;0.93;;;21.50;53.90;;;;;;4947033;28;20118;-59
2022/05/12 00:09:24;;;;;;;2.25;0.93;;;21.50;53.80;;;;;;4946974;28;20047;-60
2022/05/12 00:11:50;;;;;;;1.75;1.00;;;21.50;53.70;;;;;;4946382;28;20539;-62
2022/05/12 00:14:16;;;;;;;1.40;0.82;;;21.50;53.40;;;;;;4947299;28;20047;-62
2022/05/12 00:16:42;;;;;;;1.27;0.70;;;21.50;53.20;;;;;;4948098;28;20043;-59
2022/05/12 00:19:07;;;;;;;1.52;0.77;;;21.50;53.10;;;;;;4946837;28;20395;-59
2022/05/12 00:21:34;;;;;;;2.92;0.90;;;21.50;53.10;;;;;;4946087;29;20127;-58
2022/05/12 00:24:00;;;;;;;1.58;0.50;;;21.50;52.90;;;;;;4947419;28;20039;-59
2022/05/12 00:26:35;;;;;;;2.65;1.00;;;21.50;52.80;;;;;;4947305;28;20047;-60
2022/05/12 00:29:02;;;;;;;0.93;0.60;;;21.50;52.60;;;;;;4947541;28;20140;-61
2022/05/12 00:31:28;;;;;;;2.88;0.77;;;21.50;52.50;;;;;;4947860;28;20162;-60
2022/05/12 00:33:55;;;;;;;0.70;0.50;;;21.50;52.60;;;;;;4946422;28;20049;-59
2022/05/12 00:36:21;;;;;;;1.85;0.77;;;21.50;52.40;;;;;;4947462;29;20565;-60
2022/05/12 00:38:46;;;;;;;1.75;0.65;;;21.50;52.20;;;;;;4947307;28;20035;-60
2022/05/12 00:41:12;;;;;;;1.55;0.80;;;21.50;52.40;;;;;;4946665;29;20093;-59
2022/05/12 00:43:49;;;;;;;1.27;0.60;;;21.50;52.20;;;;;;4946691;28;20097;-59
2022/05/12 00:46:24;;;;;;;1.92;0.65;;;21.50;52.20;;;;;;4946359;29;20067;-60
2022/05/12 00:48:52;;;;;;;1.63;0.80;;;21.50;52.20;;;;;;4947935;28;20447;-59
2022/05/12 00:51:24;;;;;;;2.08;1.00;;;21.40;52.10;;;;;;4947513;28;20047;-58
2022/05/12 00:53:53;;;;;;;1.50;0.60;;;21.50;52.00;;;;;;4944534;29;20039;-59
2022/05/12 00:56:22;;;;;;;0.95;0.50;;;21.50;51.90;;;;;;4945422;29;20054;-59
2022/05/12 00:58:49;;;;;;;1.45;0.57;;;21.50;51.80;;;;;;4947290;29;20051;-61
2022/05/12 01:01:15;;;;;;;1.45;0.70;;;21.50;51.80;;;;;;4946005;29;20094;-58
2022/05/12 01:03:43;;;;;;;1.77;0.60;;;21.40;51.60;;;;;;4945294;29;20043;-60
2022/05/12 01:06:10;;;;;;;2.45;0.88;;;21.40;51.60;;;;;;4946865;28;20055;-59
2022/05/12 01:08:35;;;;;;;1.30;0.60;;;21.40;51.50;;;;;;4946128;29;20053;-59
2022/05/12 01:11:15;;;;;;;1.65;0.60;;;21.40;51.50;;;;;;4945060;28;20589;-59
2022/05/12 01:13:41;;;;;;;1.80;0.60;;;21.40;51.30;;;;;;4945606;29;20101;-62
2022/05/12 01:16:07;;;;;;;2.28;0.73;;;21.40;51.40;;;;;;4946069;29;20137;-60
2022/05/12 01:18:38;;;;;;;1.48;0.70;;;21.40;51.20;;;;;;4945799;28;20162;-61
2022/05/12 01:21:04;;;;;;;;;;;21.40;51.20;;;;;;4947108;28;20109;-59
2022/05/12 01:23:33;;;;;;;1.02;0.70;;;21.40;51.00;;;;;;4946116;29;19949;-59
2022/05/12 01:26:13;;;;;;;1.52;0.55;;;21.40;51.30;;;;;;4937125;29;20047;-60
2022/05/12 01:28:39;;;;;;;0.80;0.50;;;21.40;51.20;;;;;;4945961;29;20543;-59
2022/05/12 01:31:06;;;;;;;2.00;0.77;;;21.40;51.20;;;;;;4947390;28;20538;-58
2022/05/12 01:33:33;;;;;;;1.33;0.60;;;21.40;51.20;;;;;;4945853;28;20480;-60
2022/05/12 01:35:59;;;;;;;1.38;0.40;;;21.40;51.00;;;;;;4944589;29;20067;-59
2022/05/12 01:38:24;;;;;;;2.13;0.68;;;21.40;51.00;;;;;;4946710;29;20073;-59
2022/05/12 01:40:50;;;;;;;0.77;0.40;;;21.40;50.90;;;;;;4928030;29;20554;-58
2022/05/12 01:43:16;;;;;;;1.88;0.52;;;21.40;50.90;;;;;;4945820;28;20039;-60
2022/05/12 01:45:42;;;;;;;1.30;0.50;;;21.40;50.90;;;;;;4946263;28;20042;-59
2022/05/12 01:48:10;;;;;;;1.20;0.52;;;21.40;50.90;;;;;;4945870;28;20058;-60
2022/05/12 01:50:38;;;;;;;1.65;0.60;;;21.40;50.90;;;;;;4943708;29;20039;-59
2022/05/12 01:53:04;;;;;;;1.90;0.60;;;21.40;50.90;;;;;;4946067;29;20038;-59
2022/05/12 01:55:30;;;;;;;0.85;0.50;;;21.40;50.80;;;;;;4944797;29;20610;-60
2022/05/12 01:57:57;;;;;;;0.63;0.40;;;21.40;50.70;;;;;;4945334;28;20158;-60
2022/05/12 02:00:26;;;;;;;1.13;0.50;;;21.40;50.70;;;;;;4942785;28;20047;-59
2022/05/12 02:02:52;;;;;;;1.15;0.50;;;21.40;50.70;;;;;;4940471;29;20153;-59
2022/05/12 02:05:18;;;;;;;0.95;0.60;;;21.40;50.60;;;;;;4940721;28;20045;-61
2022/05/12 02:07:46;;;;;;;1.33;0.47;;;21.40;50.60;;;;;;4943771;29;20125;-59
2022/05/12 02:10:20;;;;;;;1.20;0.50;;;21.40;50.60;;;;;;4945772;29;20035;-59
2022/05/12 02:12:46;;;;;;;1.65;0.40;;;21.40;50.50;;;;;;4944878;29;20031;-59
2022/05/12 02:15:12;;;;;;;1.08;0.40;;;21.40;50.50;;;;;;4945090;28;20522;-61
2022/05/12 02:17:38;;;;;;;1.77;0.70;;;21.40;50.50;;;;;;4945997;29;20043;-59
2022/05/12 02:20:05;;;;;;;1.98;0.60;;;21.30;50.30;;;;;;4944411;28;20040;-60
2022/05/12 02:22:30;;;;;;;0.95;0.50;;;21.30;50.30;;;;;;4945521;28;20035;-59
2022/05/12 02:24:56;;;;;;;0.20;0.20;;;21.30;50.30;;;;;;4944757;28;20098;-59
2022/05/12 02:27:21;;;;;;;0.52;0.50;;;21.30;50.20;;;;;;4946276;28;20050;-61
2022/05/12 02:29:47;;;;;;;0.55;0.40;;;21.30;50.20;;;;;;4944877;29;20463;-59
2022/05/12 02:32:13;;;;;;;0.60;0.25;;;21.30;50.10;;;;;;4946528;28;20054;-59
2022/05/12 02:34:38;;;;;;;1.33;0.43;;;21.30;50.10;;;;;;4948408;28;20097;-58
2022/05/12 02:37:05;;;;;;;1.55;0.50;;;21.30;50.10;;;;;;4949889;29;20050;-58
2022/05/12 02:39:36;;;;;;;0.65;0.40;;;21.30;50.10;;;;;;4949304;29;20122;-59
2022/05/12 02:42:03;;;;;;;1.05;0.50;;;21.30;50.10;;;;;;4948907;29;20047;-60
2022/05/12 02:44:30;;;;;;;0.90;0.35;;;21.30;50.10;;;;;;4949037;29;20039;-60
2022/05/12 02:46:57;;;;;;;1.10;0.50;;;21.30;50.10;;;;;;4953334;28;20035;-59
2022/05/12 02:49:23;;;;;;;0.90;0.47;;;21.30;50.00;;;;;;4949505;29;20130;-59
2022/05/12 02:51:48;;;;;;;1.42;0.43;;;21.30;50.00;;;;;;4948725;29;20162;-59
2022/05/12 02:54:16;;;;;;;2.15;0.60;;;21.30;50.00;;;;;;4948632;29;20467;-59
2022/05/12 02:56:42;;;;;;;1.17;0.50;;;21.30;50.00;;;;;;4947854;29;20058;-61
2022/05/12 02:59:08;;;;;;;1.23;0.43;;;21.30;50.00;;;;;;4948363;28;20701;-60
2022/05/12 03:01:34;;;;;;;1.42;0.57;;;21.30;50.00;;;;;;4947079;29;20097;-60
2022/05/12 03:03:59;;;;;;;1.13;0.50;;;21.30;49.90;;;;;;4947911;29;20920;-59
2022/05/12 03:06:25;;;;;;;0.75;0.43;;;21.30;49.90;;;;;;4947822;28;20495;-60
2022/05/12 03:08:51;;;;;;;1.50;0.45;;;21.30;49.90;;;;;;4949018;28;20055;-59
2022/05/12 03:11:17;;;;;;;1.48;0.60;;;21.30;49.90;;;;;;4949263;29;20042;-60
2022/05/12 03:13:42;;;;;;;0.85;0.60;;;21.30;49.80;;;;;;4948799;28;20071;-59
2022/05/12 03:16:08;;;;;;;1.33;0.45;;;21.30;49.80;;;;;;4948521;28;20081;-60
2022/05/12 03:18:34;;;;;;;0.90;0.60;;;21.30;49.80;;;;;;4948503;28;20050;-61
2022/05/12 03:21:00;;;;;;;1.83;0.60;;;21.20;49.70;;;;;;4947408;28;20727;-60
2022/05/12 03:23:25;;;;;;;1.00;0.40;;;21.20;49.70;;;;;;4947441;28;20054;-59
2022/05/12 03:25:52;;;;;;;2.58;0.73;;;21.20;49.60;;;;;;4948863;28;20043;-59
2022/05/12 03:28:18;;;;;;;1.15;0.50;;;21.20;49.60;;;;;;4948835;28;20106;-60
2022/05/12 03:30:44;;;;;;;0.50;0.40;;;21.20;49.70;;;;;;4962780;28;20417;-59
2022/05/12 03:33:10;;;;;;;2.25;0.50;;;21.20;49.60;;;;;;4948680;28;20039;-59
2022/05/12 03:35:36;;;;;;;1.38;0.43;;;21.20;49.50;;;;;;4946939;29;20086;-60
2022/05/12 03:38:03;;;;;;;0.82;0.60;;;21.30;49.60;;;;;;4946682;28;20050;-61
2022/05/12 03:40:30;;;;;;;1.63;0.52;;;21.20;49.50;;;;;;4947629;28;20055;-59
2022/05/12 03:42:59;;;;;;;0.73;0.43;;;21.20;49.50;;;;;;4947641;28;20130;-60
2022/05/12 03:45:26;;;;;;;1.27;0.40;;;21.20;49.40;;;;;;4938242;29;20066;-61
2022/05/12 03:47:52;;;;;;;1.38;0.50;;;21.20;49.50;;;;;;4948633;29;20044;-58
2022/05/12 03:50:21;;;;;;;1.38;0.60;;;21.20;49.40;;;;;;4947527;28;20098;-58
2022/05/12 03:52:47;;;;;;;1.13;0.60;;;21.20;49.40;;;;;;4947682;29;20039;-59
2022/05/12 03:55:16;;;;;;;1.67;0.60;;;21.20;49.40;;;;;;4946493;29;20043;-60
2022/05/12 03:57:42;;;;;;;1.52;0.85;;;21.20;49.40;;;;;;4947565;29;20194;-59
2022/05/12 04:00:11;;;;;;;2.58;0.50;;;21.20;49.40;;;;;;4947668;29;20500;-60
2022/05/12 04:02:37;;;;;;;1.30;0.63;;;21.20;49.40;;;;;;4934242;28;20055;-58
2022/05/12 04:05:03;;;;;;;2.13;0.70;;;21.20;49.40;;;;;;4945127;29;20110;-60
2022/05/12 04:07:28;;;;;;;2.67;0.68;;;21.20;49.30;;;;;;4947125;28;20574;-60
2022/05/12 04:09:54;;;;;;;0.98;0.70;;;21.20;49.30;;;;;;4946701;29;20900;-60
2022/05/12 04:12:19;;;;;;;1.05;0.77;;;21.20;49.30;;;;;;4948059;28;20098;-60
2022/05/12 04:14:45;;;;;;;1.83;0.50;;;21.20;49.30;;;;;;4949162;28;20041;-61
2022/05/12 04:17:13;;;;;;;1.95;0.50;;;21.20;49.30;;;;;;4948465;28;20566;-60
2022/05/12 04:19:40;;;;;;;1.17;0.57;;;21.20;49.30;;;;;;4962440;28;20082;-60
2022/05/12 04:22:06;;;;;;;1.10;0.60;;;21.20;49.30;;;;;;4948153;29;20039;-60
2022/05/12 04:24:31;;;;;;;1.30;0.47;;;21.20;49.30;;;;;;4948939;28;20043;-59
2022/05/12 04:26:57;;;;;;;2.38;0.80;;;21.20;49.20;;;;;;4948368;28;20028;-58
2022/05/12 04:29:23;;;;;;;2.40;0.95;;;21.20;49.20;;;;;;4946788;29;20550;-60
2022/05/12 04:31:49;;;;;;;3.80;0.90;;;21.20;49.20;;;;;;4947434;28;20039;-60
2022/05/12 04:36:59;;;;;;;2.25;0.70;;;21.10;49.20;;;;;;4947436;28;20674;-58
2022/05/12 04:39:25;;;;;;;5.30;1.00;;;21.10;49.20;;;;;;4947579;28;20051;-58
2022/05/12 04:41:50;;;;;;;2.88;0.80;;;21.10;49.20;;;;;;4948172;29;20611;-59
2022/05/12 04:44:16;;;;;;;2.45;0.80;;;21.10;49.10;;;;;;4947556;28;20071;-58
2022/05/12 04:46:42;;;;;;;2.50;0.80;;;21.10;49.10;;;;;;4946960;29;20480;-63
2022/05/12 04:49:10;;;;;;;1.23;0.70;;;21.10;49.10;;;;;;4946826;29;20043;-60
2022/05/12 04:51:37;;;;;;;3.63;0.95;;;21.10;49.00;;;;;;4959601;28;20106;-60
2022/05/12 04:54:03;;;;;;;4.07;1.17;;;21.10;49.00;;;;;;4944911;28;20106;-59
2022/05/12 04:56:28;;;;;;;2.20;0.90;;;21.10;49.00;;;;;;4944896;28;20394;-59
2022/05/12 04:58:54;;;;;;;3.05;0.90;;;21.10;49.00;;;;;;4944170;29;20078;-59
2022/05/12 05:01:19;;;;;;;2.85;0.70;;;21.10;49.00;;;;;;4943494;28;20043;-59
2022/05/12 05:03:45;;;;;;;2.72;0.90;;;21.10;49.00;;;;;;4944620;28;21074;-60
2022/05/12 05:06:11;;;;;;;2.70;0.80;;;21.10;49.00;;;;;;4944984;29;20451;-61
2022/05/12 05:08:37;;;;;;;1.90;1.00;;;21.10;49.00;;;;;;4944795;29;20126;-59
2022/05/12 05:11:06;;;;;;;2.17;1.00;;;21.10;49.10;;;;;;4944744;29;20078;-59
2022/05/12 05:13:32;;;;;;;3.30;0.80;;;21.10;49.20;;;;;;4944951;28;20066;-59
2022/05/12 05:15:57;;;;;;;2.55;0.95;;;21.10;49.20;;;;;;4943686;28;20106;-60
2022/05/12 05:18:23;;;;;;;1.58;0.88;;;21.10;49.20;;;;;;4944924;28;20047;-59
2022/05/12 05:20:50;;;;;;;3.20;1.00;;;21.10;49.20;;;;;;4947450;29;20051;-61
2022/05/12 05:23:16;;;;;;;2.80;1.00;;;21.10;49.00;;;;;;4947706;28;20328;-61
2022/05/12 05:25:42;;;;;;;2.42;0.82;;;21.10;49.20;;;;;;4947008;29;20043;-61
2022/05/12 05:28:10;;;;;;;2.58;1.05;;;21.10;49.20;;;;;;4947242;29;20043;-60
2022/05/12 05:30:36;;;;;;;2.67;1.00;;;21.10;49.20;;;;;;4948029;28;20070;-61
2022/05/12 05:33:02;;;;;;;3.20;0.90;;;21.20;49.30;;;;;;4947773;28;20039;-61
2022/05/12 05:35:27;;;;;;;2.45;1.00;;;21.10;49.20;;;;;;4947306;28;20450;-63
2022/05/12 05:37:54;;;;;;;3.20;0.98;;;21.10;49.20;;;;;;4948679;29;20133;-63
2022/05/12 05:40:23;;;;;;;3.45;1.45;;;21.10;49.20;;;;;;4948629;29;20050;-62
2022/05/12 05:42:49;;;;;;;3.00;1.00;;;21.10;49.30;;;;;;4947949;29;20054;-62
2022/05/12 05:45:17;;;;;;;3.53;1.30;;;21.20;49.40;;;;;;4947578;29;20082;-64
2022/05/12 05:47:46;;;;;;;3.42;1.50;;;21.10;49.30;;;;;;4948440;29;20043;-60
2022/05/12 05:50:16;;;;;;;3.08;1.40;;;21.20;49.40;;;;;;4948295;29;20113;-62
2022/05/12 05:55:26;;;;;;;2.88;1.00;;;21.10;49.30;;;;;;4946955;28;20113;-63
2022/05/12 05:57:51;;;;;;;2.85;1.00;;;21.10;49.40;;;;;;4948614;29;20039;-62
2022/05/12 06:00:18;;;;;;;2.72;1.10;;;21.20;49.60;;;;;;4947660;28;20443;-62
2022/05/12 06:02:44;;;;;;;3.28;1.42;;;21.20;49.60;;;;;;4947900;28;20054;-62
2022/05/12 06:05:10;;;;;;;4.13;1.20;;;21.20;49.70;;;;;;4948387;29;20087;-62
2022/05/12 06:07:37;;;;;;;3.58;1.10;;;21.20;49.80;;;;;;4948290;28;20133;-63
2022/05/12 06:10:05;;;;;;;4.75;1.23;;;21.20;50.00;;;;;;4948109;28;20044;-61
2022/05/12 06:12:31;;;;;;;5.88;1.40;;;21.20;49.90;;;;;;4946716;28;20077;-61
2022/05/12 06:14:56;;;;;;;3.72;1.23;;;21.20;50.10;;;;;;4947875;28;20039;-62
2022/05/12 06:17:22;;;;;;;2.97;1.40;;;21.20;50.10;;;;;;4947421;28;20047;-61
2022/05/12 06:19:50;;;;;;;3.88;1.15;;;21.20;50.20;;;;;;4947001;29;20411;-61
2022/05/12 06:22:18;;;;;;;5.57;1.60;;;21.20;50.30;;;;;;4947015;28;20279;-61
2022/05/12 06:24:44;;;;;;;4.13;1.45;;;21.20;50.40;;;;;;4946329;29;20043;-61
2022/05/12 06:27:09;;;;;;;5.13;1.20;;;21.20;50.50;;;;;;4947795;28;20058;-60
2022/05/12 06:29:36;;;;;;;3.45;1.35;;;21.30;50.60;;;;;;4947298;29;20070;-61
2022/05/12 06:32:02;;;;;;;4.35;1.38;;;21.20;50.50;;;;;;4947941;28;20043;-61
2022/05/12 06:34:28;;;;;;;2.97;1.00;;;21.20;50.50;;;;;;4946777;29;20110;-61
2022/05/12 06:36:56;;;;;;;2.45;1.00;;;21.30;50.60;;;;;;4948220;28;20063;-60
2022/05/12 06:39:22;;;;;;;2.58;1.15;;;21.30;50.60;;;;;;4947474;28;20039;-61
2022/05/12 06:41:48;;;;;;;4.50;1.35;;;21.30;50.70;;;;;;4947539;28;20059;-60
2022/05/12 06:44:14;;;;;;;2.78;1.15;;;21.30;50.60;;;;;;4947652;28;20051;-61
2022/05/12 06:46:40;;;;;;;4.03;0.98;;;21.30;50.60;;;;;;4946791;28;20055;-62
2022/05/12 06:49:06;;;;;;;3.38;1.10;;;21.30;50.70;;;;;;4947564;28;20050;-62
2022/05/12 06:51:32;;;;;;;3.45;1.05;;;21.30;50.70;;;;;;4946589;29;20035;-61
2022/05/12 06:53:58;;;;;;;4.15;1.48;;;21.30;50.70;;;;;;4947413;28;20043;-61
2022/05/12 06:56:24;;;;;;;3.78;1.23;;;21.30;50.70;;;;;;4947964;28;20051;-61
2022/05/12 06:58:49;;;;;;;3.08;1.20;;;21.30;50.70;;;;;;4947735;28;20047;-61
2022/05/12 07:01:15;;;;;;;3.15;1.10;;;21.30;50.70;;;;;;4947876;28;20484;-60
2022/05/12 07:03:41;;;;;;;4.35;1.23;;;21.30;50.70;;;;;;4947579;28;20423;-61
2022/05/12 07:06:07;;;;;;;1.15;0.82;;;21.30;50.70;;;;;;4946229;29;20050;-61
2022/05/12 07:08:37;;;;;;;2.05;1.02;;;21.30;50.70;;;;;;4948252;28;20031;-61
2022/05/12 07:11:03;;;;;;;2.10;0.97;;;21.30;50.70;;;;;;4947925;29;20074;-60
2022/05/12 07:13:29;;;;;;;2.63;1.10;;;21.40;50.70;;;;;;4946517;29;20491;-61
2022/05/12 07:15:54;;;;;;;3.50;1.08;;;21.30;50.70;;;;;;4946583;29;20058;-61
2022/05/12 07:18:20;;;;;;;2.55;1.00;;;21.40;50.80;;;;;;4948052;28;20058;-61
2022/05/12 07:28:59;;;;;;;2.92;1.10;;;21.40;50.80;;;;;;4950573;28;20087;-61
2022/05/12 07:31:24;;;;;;;3.17;0.90;;;21.30;50.70;;;;;;4951358;28;20043;-61
2022/05/12 07:33:50;;;;;;;2.65;0.82;;;21.40;50.80;;;;;;4950678;28;20082;-60
2022/05/12 07:36:23;;;;;;;2.13;0.80;;;21.30;50.70;;;;;;4950330;28;20031;-61
2022/05/12 07:38:49;;;;;;;2.50;1.10;;;21.40;50.80;;;;;;4950980;28;20402;-61
2022/05/12 07:41:16;;;;;;;2.42;0.95;;;21.30;50.70;;;;;;4950172;29;20046;-60
2022/05/12 07:43:44;;;;;;;1.75;0.82;;;21.30;50.70;;;;;;4950432;28;20055;-61
2022/05/12 07:46:12;;;;;;;3.08;1.05;;;21.40;50.70;;;;;;4950492;28;20051;-61
2022/05/12 07:48:39;;;;;;;1.48;1.00;;;21.40;50.70;;;;;;4950255;28;20101;-61
2022/05/12 07:51:04;;;;;;;2.28;0.90;;;21.40;50.70;;;;;;4950477;29;20043;-61
2022/05/12 07:53:30;;;;;;;2.80;1.23;;;21.40;50.70;;;;;;4949960;29;20454;-61
2022/05/12 07:55:56;;;;;;;2.25;0.98;;;21.40;50.70;;;;;;4950418;28;20066;-61
2022/05/12 07:58:21;;;;;;;1.63;1.15;;;21.40;50.70;;;;;;4950320;29;20106;-62
2022/05/12 08:00:47;;;;;;;1.80;0.95;;;21.40;50.70;;;;;;4950260;28;20063;-61
2022/05/12 08:03:13;;;;;;;3.15;1.02;;;21.40;50.70;;;;;;4949595;28;20119;-61
2022/05/12 08:05:38;;;;;;;1.05;0.70;;;21.40;50.70;;;;;;4950414;28;20051;-60
2022/05/12 08:08:05;;;;;;;1.85;0.95;;;21.40;50.70;;;;;;4949531;28;20039;-61
2022/05/12 08:10:32;;;;;;;2.20;1.00;;;21.40;50.60;;;;;;4949658;29;20147;-62
2022/05/12 08:12:58;;;;;;;2.42;0.98;;;21.40;50.60;;;;;;4950166;28;20361;-61
2022/05/12 08:15:25;;;;;;;3.40;1.05;;;21.40;50.60;;;;;;4949609;29;20067;-60
2022/05/12 08:17:54;;;;;;;3.33;0.90;;;21.40;50.60;;;;;;4948936;29;20051;-61
2022/05/12 08:20:20;;;;;;;2.42;0.80;;;21.40;51.30;;;;;;4949713;28;20039;-61
2022/05/12 08:22:46;;;;;;;2.72;0.82;;;21.40;50.60;;;;;;4950006;28;20039;-61
2022/05/12 08:25:12;;;;;;;2.17;1.00;;;21.40;50.60;;;;;;4948662;28;20226;-61
2022/05/12 08:27:38;;;;;;;3.05;0.90;;;21.40;50.60;;;;;;4949974;28;20043;-61
2022/05/12 08:30:06;;;;;;;3.08;0.90;;;21.40;50.50;;;;;;4948094;28;20046;-61
2022/05/12 08:32:33;;;;;;;2.55;0.80;;;21.40;50.50;;;;;;4948752;29;20043;-61
2022/05/12 08:34:59;;;;;;;1.77;0.82;;;21.40;50.40;;;;;;4949498;28;20146;-61
2022/05/12 08:37:24;;;;;;;2.08;0.90;;;21.40;50.50;;;;;;4949499;28;20126;-61
2022/05/12 08:39:51;;;;;;;2.38;0.98;;;21.40;50.40;;;;;;4949937;28;20681;-61
2022/05/12 08:42:37;;;;;;;1.65;0.85;;;21.40;50.40;;;;;;4949953;28;20051;-61
2022/05/12 08:45:07;;;;;;;2.05;0.90;;;21.40;50.40;;;;;;4949805;28;20170;-61
2022/05/12 08:47:37;;;;;;;2.85;0.85;;;21.40;50.40;;;;;;4949058;29;20130;-61
2022/05/12 08:50:04;;;;;;;3.30;1.00;;;21.40;50.30;;;;;;4949594;28;20046;-61
2022/05/12 08:52:44;;;;;;;3.50;1.05;;;21.40;50.30;;;;;;4948690;28;20376;-61
2022/05/12 08:55:21;;;;;;;2.92;1.20;;;21.40;50.30;;;;;;4949609;28;20066;-61
2022/05/12 08:57:56;;;;;;;1.73;0.88;;;21.30;50.20;;;;;;4949439;29;20094;-61
2022/05/12 09:00:22;;;;;;;2.03;0.77;;;21.40;50.10;;;;;;4949339;29;20043;-61
2022/05/12 09:02:53;;;;;;;3.22;0.85;;;21.30;50.10;;;;;;4949734;28;20047;-61
2022/05/12 09:05:25;;;;;;;2.55;0.98;;;21.30;50.00;;;;;;4948406;29;20070;-61
2022/05/12 09:08:23;;;;;;;3.25;1.00;;;21.30;50.00;;;;;;4948955;28;20035;-60
2022/05/12 09:11:19;;;;;;;4.47;0.93;;;21.40;49.90;;;;;;4948914;29;20057;-61
2022/05/12 09:13:51;;;;;;;1.33;0.80;;;21.40;49.90;;;;;;4947003;29;20047;-61
2022/05/12 09:16:30;;;;;;;1.52;0.80;;;21.40;49.90;;;;;;4963257;28;20126;-61
2022/05/12 09:18:57;;;;;;;1.98;0.73;;;21.30;49.90;;;;;;4948812;29;20043;-61
2022/05/12 09:21:24;;;;;;;2.35;0.85;;;21.30;49.80;;;;;;4949094;29;20054;-61
2022/05/12 09:23:50;;;;;;;2.42;0.88;;;21.30;49.70;;;;;;4948119;29;20098;-61
2022/05/12 09:26:54;;;;;;;2.85;1.20;;;21.30;49.70;;;;;;4948740;28;20034;-61
2022/05/12 09:29:23;;;;;;;1.85;0.90;;;21.30;49.60;;;;;;4945694;28;20586;-61
2022/05/12 09:32:02;;;;;;;1.95;0.90;;;21.30;49.60;;;;;;4948736;29;20091;-61
2022/05/12 09:34:32;;;;;;;2.08;1.13;;;21.30;49.50;;;;;;4948228;29;20089;-62
2022/05/12 09:37:13;;;;;;;2.63;0.90;;;21.30;49.50;;;;;;4948430;28;20047;-61
2022/05/12 09:39:45;;;;;;;1.15;0.77;;;21.30;49.40;;;;;;4948370;28;20082;-61
2022/05/12 09:42:39;;;;;;;2.35;1.00;;;21.30;49.50;;;;;;4948216;28;20376;-62
2022/05/12 09:45:21;;;;;;;2.40;0.85;;;21.30;49.30;;;;;;4945208;29;20055;-61
2022/05/12 09:47:47;;;;;;;2.83;0.93;;;21.30;49.30;;;;;;4946566;29;20047;-61
2022/05/12 09:50:19;;;;;;;3.17;0.90;;;21.30;49.40;;;;;;4947789;29;20035;-61
2022/05/12 09:52:55;;;;;;;1.55;0.70;;;21.30;49.30;;;;;;4947881;29;20074;-61
2022/05/12 09:55:36;;;;;;;1.65;0.70;;;21.30;49.10;;;;;;4948249;28;20050;-61
2022/05/12 09:58:14;;;;;;;;;;;21.30;49.10;;;;;;4948344;29;20043;-61
2022/05/12 10:00:43;;;;;;;1.02;0.60;;;21.30;49.00;;;;;;4948201;29;19933;-61
2022/05/12 10:09:07;;;;;;;2.47;0.73;;;21.30;49.10;;;;;;4947019;28;20066;-61
2022/05/12 10:11:42;;;;;;;1.65;0.70;;;21.30;49.00;;;;;;4947960;29;20039;-61
2022/05/12 10:14:23;;;;;;;1.30;0.60;;;21.30;48.90;;;;;;4948201;28;20047;-61
2022/05/12 10:16:50;;;;;;;;;;;21.30;48.80;;;;;;4948195;29;20437;-61
2022/05/12 10:19:22;;;;;;;3.17;0.70;;;21.30;48.80;;;;;;4948825;28;19918;-61
2022/05/12 10:22:13;;;;;;;2.05;0.80;;;21.20;48.80;;;;;;4947629;29;20078;-61
2022/05/12 10:24:57;;;;;;;1.20;0.80;;;21.20;48.70;;;;;;4947128;29;20043;-61
2022/05/12 10:28:07;;;;;;;2.33;0.93;;;21.20;48.60;;;;;;4947795;28;20054;-61
2022/05/12 10:31:00;;;;;;;1.45;0.80;;;21.30;48.60;;;;;;4947722;28;20043;-61
2022/05/12 10:33:57;;;;;;;3.15;0.70;;;21.20;48.50;;;;;;4947721;28;20082;-61
2022/05/12 10:36:26;;;;;;;1.88;0.82;;;21.30;48.60;;;;;;4947399;29;20058;-61
2022/05/12 10:39:09;;;;;;;1.63;0.80;;;21.20;48.60;;;;;;4947898;28;20047;-61
2022/05/12 10:41:58;;;;;;;2.50;0.80;;;21.20;48.40;;;;;;4947143;28;20051;-61
2022/05/12 10:44:39;;;;;;;2.58;1.05;;;21.20;48.30;;;;;;4945909;29;20402;-61
2022/05/12 10:47:12;;;;;;;1.40;0.60;;;21.20;48.20;;;;;;4947275;29;20055;-61
2022/05/12 10:50:04;;;;;;;1.77;0.80;;;21.20;48.40;;;;;;4948090;29;20110;-61
2022/05/12 10:52:47;;;;;;;1.40;0.70;;;21.20;48.30;;;;;;4946664;28;20032;-61
2022/05/12 10:55:39;;;;;;;1.83;0.70;;;21.20;48.30;;;;;;4950206;29;20269;-61
2022/05/12 10:58:37;;;;;;;1.45;0.70;;;21.20;48.20;;;;;;4950797;29;20397;-61
2022/05/12 11:01:09;;;;;;;1.10;0.55;;;21.20;48.20;;;;;;4951197;29;20098;-61
2022/05/12 11:04:12;;;;;;;2.03;0.73;;;21.20;48.20;;;;;;4941446;29;20047;-63
2022/05/12 11:06:49;;;;;;;2.45;1.05;;;21.30;48.20;;;;;;4943811;29;20055;-61
2022/05/12 11:09:24;;;;;;;3.17;1.05;;;21.20;48.20;;;;;;4949880;29;20715;-62
2022/05/12 11:11:51;;;;;;;1.45;0.60;;;21.20;48.10;;;;;;4947469;29;20051;-61
2022/05/12 11:14:17;;;;;;;2.80;0.80;;;21.20;48.10;;;;;;4950052;28;20458;-61
2022/05/12 11:17:23;;;;;;;2.25;0.70;;;21.20;48.00;;;;;;4950773;28;20079;-61
2022/05/12 11:20:00;;;;;;;1.67;0.82;;;21.20;47.70;;;;;;4903808;29;20091;-61
2022/05/12 11:22:50;;;;;;;5.28;1.30;;;21.20;47.90;;;;;;4903653;29;20059;-62
2022/05/12 11:25:32;;;;;;;1.93;1.00;;;21.20;46.80;;;;;;4935358;28;20055;-62
2022/05/12 11:31:27;;;;;;;2.60;0.90;;;21.20;46.60;;;;;;4951819;28;20050;-62
2022/05/12 11:34:01;;;;;;;3.90;1.40;;;21.20;46.50;;;;;;4948197;29;20470;-62
2022/05/12 11:36:44;;;;;;;2.28;1.02;;;21.20;45.80;;;;;;4949983;29;20054;-62
2022/05/12 11:39:29;;;;;;;3.03;1.27;;;21.20;46.00;;;;;;4949761;29;20051;-61
2022/05/12 11:45:47;;;;;;;3.28;1.50;;;21.20;45.90;;;;;;4948176;28;20081;-62
2022/05/12 11:48:30;;;;;;;3.70;1.02;;;21.20;45.30;;;;;;4950819;29;20039;-62
2022/05/12 11:51:15;;;;;;;4.15;1.30;;;21.10;45.50;;;;;;4950635;29;20402;-62
2022/05/12 11:54:01;;;;;;;3.05;1.38;;;21.10;45.40;;;;;;4950748;29;20071;-62
2022/05/12 11:56:49;;;;;;;2.13;1.05;;;21.10;45.60;;;;;;4950542;29;20039;-62
2022/05/12 11:59:30;;;;;;;4.85;1.40;;;21.10;45.50;;;;;;4950684;29;20053;-62
2022/05/12 12:01:58;;;;;;;2.30;0.80;;;21.10;45.50;;;;;;4949517;28;20160;-62
2022/05/12 12:04:53;;;;;;;1.95;0.77;;;21.20;45.90;;;;;;4950019;28;20049;-62
2022/05/12 12:07:31;;;;;;;3.17;0.95;;;21.20;45.80;;;;;;4946010;29;20494;-62
2022/05/12 12:10:03;;;;;;;1.70;0.80;;;21.10;45.90;;;;;;4951042;28;20118;-62
2022/05/12 12:12:42;;;;;;;3.35;1.10;;;21.20;46.00;;;;;;4948502;29;20054;-62
2022/05/12 12:15:36;;;;;;;2.42;1.10;;;21.20;45.90;;;;;;4949565;28;20496;-62
2022/05/12 12:18:22;;;;;;;3.00;1.02;;;21.20;45.30;;;;;;4948942;29;20051;-62
2022/05/12 12:20:56;;;;;;;1.85;0.80;;;21.20;45.20;;;;;;4937343;29;20051;-62
2022/05/12 12:23:24;;;;;;;2.75;0.82;;;21.10;45.40;;;;;;4949749;29;20054;-62
2022/05/12 12:26:11;;;;;;;1.85;0.90;;;21.10;45.30;;;;;;4950188;29;20055;-62
2022/05/12 12:28:59;;;;;;;2.90;1.13;;;21.20;45.30;;;;;;4950216;29;20055;-62
2022/05/12 12:31:37;;;;;;;2.80;0.88;;;21.10;45.20;;;;;;4946214;28;20035;-62
2022/05/12 12:34:26;;;;;;;2.65;0.70;;;21.10;44.90;;;;;;4946822;29;20031;-62
2022/05/12 12:37:08;;;;;;;2.00;0.70;;;21.10;45.00;;;;;;4940806;29;20047;-62
2022/05/12 12:39:40;;;;;;;2.25;0.90;;;21.10;45.20;;;;;;4946860;28;20403;-62
2022/05/12 12:42:20;;;;;;;2.42;0.70;;;21.10;45.10;;;;;;4946791;29;20046;-62
2022/05/12 12:45:05;;;;;;;2.17;0.63;;;21.10;44.70;;;;;;4945818;29;20396;-62
2022/05/12 12:47:39;;;;;;;1.27;0.75;;;21.10;44.00;;;;;;4946486;29;20043;-62
2022/05/12 12:50:16;;;;;;;3.75;0.90;;;21.10;44.10;;;;;;4943579;29;20070;-62
2022/05/12 12:52:47;;;;;;;2.80;1.00;;;21.10;43.70;;;;;;4945763;28;20341;-62
2022/05/12 12:58:45;;;;;;;4.13;1.08;;;21.10;43.20;;;;;;4945345;29;20074;-62
2022/05/12 13:01:17;;;;;;;2.75;0.90;;;21.10;43.40;;;;;;4948082;29;20047;-62
2022/05/12 13:03:56;;;;;;;2.55;1.00;;;21.10;43.20;;;;;;4946367;28;20050;-62
2022/05/12 13:06:34;;;;;;;1.90;0.82;;;21.10;42.30;;;;;;4945777;29;20039;-62
2022/05/12 13:09:04;;;;;;;4.03;0.90;;;21.10;42.50;;;;;;4946574;29;20081;-62
2022/05/12 13:11:31;;;;;;;1.98;0.90;;;21.10;42.50;;;;;;4947096;29;20069;-62
2022/05/12 13:13:56;;;;;;;2.83;0.73;;;21.10;42.80;;;;;;4946871;28;20511;-62
2022/05/12 13:16:25;;;;;;;3.35;0.98;;;21.10;42.60;;;;;;4946850;28;20078;-62
2022/05/12 13:18:55;;;;;;;2.92;1.10;;;21.10;42.60;;;;;;4946128;28;20046;-62
2022/05/12 13:21:23;;;;;;;2.70;1.00;;;21.10;42.50;;;;;;4945774;29;20051;-62
2022/05/12 13:24:20;;;;;;;3.03;0.80;;;21.10;42.60;;;;;;4946376;28;20480;-62
2022/05/12 13:26:48;;;;;;;2.00;1.20;;;21.10;43.30;;;;;;4940016;28;20055;-62
2022/05/12 13:29:23;;;;;;;1.80;0.88;;;21.10;42.60;;;;;;4944650;28;20028;-62
2022/05/12 13:32:01;;;;;;;3.03;1.10;;;21.10;42.70;;;;;;4946604;29;20047;-62
2022/05/12 13:34:29;;;;;;;3.58;1.23;;;21.20;42.50;;;;;;4943290;29;20078;-62
2022/05/12 13:36:58;;;;;;;2.92;1.00;;;21.10;42.20;;;;;;4944378;28;20088;-62